• Join FlightAware (Why Join?)
  • Login
  • US Flag 
03:10AM EDT


 

Airport Tracker/Info


-or-


 

Live Flight TrackerFlight Track Log ✈ VH-YJJ ✈ 06-Sep-2013 ✈ YWHA / WYA - YPAG / PUG

Flight Track Log - Related Links

Times and Time Zones

All times are in EDT time to prevent confusion due to time zone crossing. See the VH-YJJ flight status page for this flight to view local times or setup timezone preferences in your user account.

Time Position Orientation Groundspeed Altitude Reporting Facility
EDT Latitude Longitude Course Direction KTS MPH feet Rate Location/Type
07:40PM -32.9272 137.5621 334° Northwest 600  Level Aus ATC (Calculated)
07:41PM -32.9259 137.5613 17° North 600  Level Aus ATC (Calculated)
07:43PM -32.8938 137.5733 17° North  Level Estimated
07:43PM -32.8593 137.5847 192° South 600  Level Aus ATC (Calculated)
07:44PM -32.8718 137.5815 17° North  Level Estimated
07:44PM -32.7927 137.6081 18° North 600  Level Aus ATC (Calculated)
07:46PM -32.7663 137.6181 18° North  Level Estimated
07:47PM -32.7442 137.6265 18° North  Level Estimated
07:48PM -32.7222 137.6349 18° North  Level Estimated
07:49PM -32.7002 137.6433 18° North  Level Estimated
07:49PM -32.5931 137.6780 195° South 600  Level Aus ATC (Calculated)
07:50PM -32.6781 137.6517 18° North  Level Estimated
07:51PM -32.5617 137.6921 21° North  Level Estimated
07:51PM -32.5931 137.6780 21° North 600  Level Aus ATC (Calculated)
07:53PM -32.5506 137.6971 21° North  Level Estimated
07:54PM -32.5289 137.7068 21° North  Level Estimated
07:55PM -32.5073 137.7165 21° North  Level Estimated
07:56PM -32.5069 137.7167 20° North  Level Estimated
07:57PM -32.5069 137.7167 212° Southwest  Level Estimated
07:58PM -32.5069 137.7167 212° Southwest  Level Estimated
07:59PM -32.5069 137.7167 212° Southwest  Level Estimated
08:00PM -32.5069 137.7167 212° Southwest  Level Estimated
08:01PM -32.5069 137.7167 212° Southwest  Level Estimated
08:02PM -32.5069 137.7167 212° Southwest  Level Estimated
08:03PM -32.5069 137.7167 212° Southwest  Level Estimated
08:04PM -32.5069 137.7167 212° Southwest  Level Estimated
08:05PM -32.5069 137.7167 212° Southwest  Level Estimated
08:06PM -32.5069 137.7167 212° Southwest  Level Estimated
08:07PM -32.5069 137.7167 212° Southwest  Level Estimated
08:08PM -32.5069 137.7167 212° Southwest  Level Estimated
08:09PM -32.5069 137.7167 212° Southwest  Level Estimated
08:10PM -32.5069 137.7167 212° Southwest  Level Estimated
08:11PM -32.5069 137.7167 212° Southwest  Level Estimated
08:12PM -32.5069 137.7167 212° Southwest  Level Estimated
08:13PM -32.5069 137.7167 212° Southwest  Level Estimated
08:14PM -32.5069 137.7167 212° Southwest  Level Estimated
08:15PM -32.5069 137.7167 212° Southwest  Level Estimated
08:16PM -32.5069 137.7167 212° Southwest  Level Estimated
08:17PM -32.5069 137.7167 212° Southwest  Level Estimated
08:18PM -32.5069 137.7167 212° Southwest  Level Estimated